createdAt,value
2022-12-29T00:02:19.840Z,99.90
2022-12-29T00:04:50.481Z,99.90
2022-12-29T00:07:19.457Z,99.90
2022-12-29T00:09:47.449Z,99.90
2022-12-29T00:12:15.919Z,99.90
2022-12-29T00:15:02.541Z,99.90
2022-12-29T00:17:31.072Z,99.90
2022-12-29T00:20:18.342Z,99.90
2022-12-29T00:23:04.987Z,99.90
2022-12-29T00:25:51.723Z,99.90
2022-12-29T00:28:40.734Z,99.90
2022-12-29T00:31:32.019Z,99.90
2022-12-29T00:34:18.721Z,99.90
2022-12-29T00:36:46.896Z,99.90
2022-12-29T00:39:50.799Z,99.90
2022-12-29T00:42:37.359Z,99.90
2022-12-29T00:45:06.383Z,99.90
2022-12-29T00:47:35.779Z,99.90
2022-12-29T00:50:03.795Z,99.90
2022-12-29T00:52:31.940Z,99.90
2022-12-29T00:54:59.722Z,99.90
2022-12-29T00:57:28.337Z,99.90
2022-12-29T00:59:56.761Z,99.90
2022-12-29T01:02:24.922Z,99.90
2022-12-29T01:04:53.340Z,99.90
2022-12-29T01:07:24.148Z,99.90
2022-12-29T01:10:10.249Z,99.90
2022-12-29T01:12:41.955Z,99.90
2022-12-29T01:15:15.368Z,99.90
2022-12-29T01:17:44.625Z,99.90
2022-12-29T01:20:13.195Z,99.90
2022-12-29T01:22:43.666Z,99.90
2022-12-29T01:25:11.944Z,99.90
2022-12-29T01:27:41.237Z,99.90
2022-12-29T01:30:09.724Z,99.90
2022-12-29T01:32:37.893Z,99.90
2022-12-29T01:35:06.490Z,99.90
2022-12-29T01:37:36.868Z,99.90
2022-12-29T01:40:06.345Z,99.90
2022-12-29T01:42:35.380Z,99.90
2022-12-29T01:45:12.392Z,99.90
2022-12-29T01:47:47.269Z,99.90
2022-12-29T01:50:24.424Z,99.90
2022-12-29T01:53:14.619Z,99.90
2022-12-29T01:55:47.282Z,99.90
2022-12-29T01:58:17.793Z,99.90
2022-12-29T02:00:46.451Z,99.90
2022-12-29T02:03:19.208Z,99.90
2022-12-29T02:05:51.841Z,99.90
2022-12-29T02:08:23.357Z,99.90
2022-12-29T02:10:51.307Z,99.90
2022-12-29T02:13:20.509Z,99.90
2022-12-29T02:16:06.859Z,99.90
2022-12-29T02:18:58.126Z,99.90
2022-12-29T02:22:03.724Z,99.90
2022-12-29T02:24:45.163Z,99.90
2022-12-29T02:27:25.188Z,99.90
2022-12-29T02:30:11.107Z,99.90
2022-12-29T02:32:46.871Z,99.90
2022-12-29T02:35:31.941Z,99.90
2022-12-29T02:38:06.739Z,99.90
2022-12-29T02:40:59.187Z,99.90
2022-12-29T02:43:50.309Z,99.90
2022-12-29T02:46:36.978Z,99.90
2022-12-29T02:49:11.548Z,99.90
2022-12-29T02:51:51.324Z,99.90
2022-12-29T02:54:39.372Z,99.90
2022-12-29T02:57:21.091Z,99.90
2022-12-29T03:00:12.785Z,99.90
2022-12-29T03:03:33.612Z,99.90
2022-12-29T03:06:28.438Z,99.90
2022-12-29T03:09:18.267Z,99.90
2022-12-29T03:12:09.161Z,99.90
2022-12-29T03:15:17.555Z,99.90
2022-12-29T03:18:04.293Z,99.90
2022-12-29T03:20:53.001Z,99.90
2022-12-29T03:23:22.395Z,99.90
2022-12-29T03:25:54.894Z,99.90
2022-12-29T03:28:30.449Z,99.90
2022-12-29T03:30:59.982Z,99.90
2022-12-29T03:33:32.616Z,99.90
2022-12-29T03:36:07.133Z,99.90
2022-12-29T03:38:42.067Z,99.90
2022-12-29T03:41:18.366Z,99.90
2022-12-29T03:43:48.988Z,99.90
2022-12-29T03:46:17.505Z,99.90
2022-12-29T03:48:46.261Z,99.90
2022-12-29T03:51:14.801Z,99.90
2022-12-29T03:53:43.037Z,99.90
2022-12-29T03:56:11.618Z,99.90
2022-12-29T03:58:40.296Z,99.90
2022-12-29T04:01:15.811Z,99.90
2022-12-29T04:03:49.095Z,99.90
2022-12-29T04:06:18.269Z,99.90
2022-12-29T04:08:59.413Z,99.90
2022-12-29T04:11:32.910Z,99.90
2022-12-29T04:14:02.268Z,99.90
2022-12-29T04:16:32.322Z,99.90
2022-12-29T04:19:00.112Z,99.90
2022-12-29T04:21:29.175Z,99.90
2022-12-29T04:23:57.840Z,99.90
2022-12-29T04:26:26.393Z,99.90
2022-12-29T04:29:00.724Z,99.90
2022-12-29T04:31:49.891Z,99.90
2022-12-29T04:34:19.187Z,99.90
2022-12-29T04:36:49.352Z,99.90
2022-12-29T04:39:17.206Z,99.90
2022-12-29T04:41:45.351Z,99.90
2022-12-29T04:44:18.499Z,99.90
2022-12-29T04:47:05.664Z,99.90
2022-12-29T04:49:52.738Z,99.90
2022-12-29T04:52:36.028Z,99.90
2022-12-29T04:55:05.679Z,99.90
2022-12-29T04:57:33.888Z,99.90
2022-12-29T05:00:03.895Z,99.90
2022-12-29T05:02:32.300Z,99.90
2022-12-29T05:05:02.471Z,99.90
2022-12-29T05:07:31.588Z,99.90
2022-12-29T05:10:00.855Z,99.90
2022-12-29T05:12:36.917Z,99.90
2022-12-29T05:15:07.588Z,99.90
2022-12-29T05:17:36.702Z,99.90
2022-12-29T05:20:05.991Z,99.90
2022-12-29T05:22:35.516Z,99.90
2022-12-29T05:25:03.653Z,99.90
2022-12-29T05:27:37.430Z,99.90
2022-12-29T05:30:21.654Z,99.90
2022-12-29T05:32:50.223Z,99.90
2022-12-29T05:35:19.315Z,99.90
2022-12-29T05:37:47.437Z,99.90
2022-12-29T05:40:16.156Z,99.90
2022-12-29T05:42:45.595Z,99.90
2022-12-29T05:45:34.025Z,99.90
2022-12-29T05:48:30.476Z,99.90
2022-12-29T05:51:23.871Z,99.90
2022-12-29T05:53:54.605Z,99.90
2022-12-29T05:56:24.388Z,99.90
2022-12-29T05:58:57.912Z,99.90
2022-12-29T06:01:26.121Z,99.90
2022-12-29T06:03:55.646Z,99.90
2022-12-29T06:06:24.197Z,99.90
2022-12-29T06:08:52.406Z,99.90
2022-12-29T06:11:21.112Z,99.90
2022-12-29T06:13:54.506Z,99.90
2022-12-29T06:16:22.964Z,99.90
2022-12-29T06:18:54.679Z,99.90
2022-12-29T06:21:23.954Z,99.90
2022-12-29T06:23:52.754Z,99.90
2022-12-29T06:26:22.635Z,99.90
2022-12-29T06:28:50.916Z,99.90
2022-12-29T06:31:21.001Z,99.90
2022-12-29T06:33:50.426Z,99.90
2022-12-29T06:36:21.319Z,99.90
2022-12-29T06:38:50.371Z,99.90
2022-12-29T06:41:25.659Z,99.90
2022-12-29T06:44:23.045Z,99.90
2022-12-29T06:46:52.846Z,99.90
2022-12-29T06:49:21.753Z,99.90
2022-12-29T06:51:49.617Z,99.90
2022-12-29T06:54:17.693Z,99.90
2022-12-29T06:56:45.942Z,99.90
2022-12-29T06:59:14.622Z,99.90
2022-12-29T07:01:42.970Z,99.90
2022-12-29T07:04:11.286Z,99.90
2022-12-29T07:06:39.497Z,99.90
2022-12-29T07:09:08.559Z,99.90
2022-12-29T07:11:37.004Z,99.90
2022-12-29T07:14:05.074Z,99.90
2022-12-29T07:16:33.606Z,99.90
2022-12-29T07:19:02.719Z,99.90
2022-12-29T07:21:31.138Z,99.90
2022-12-29T07:23:59.630Z,99.90
2022-12-29T07:26:34.408Z,99.90
2022-12-29T07:29:05.198Z,99.90
2022-12-29T07:31:34.167Z,99.90
2022-12-29T07:34:02.318Z,99.90
2022-12-29T07:36:34.416Z,99.90
2022-12-29T07:39:03.967Z,99.90
2022-12-29T07:41:32.525Z,99.90
2022-12-29T07:44:03.623Z,99.90
2022-12-29T07:46:55.336Z,99.90
2022-12-29T07:49:25.024Z,99.90
2022-12-29T07:51:52.774Z,99.90
2022-12-29T07:54:20.990Z,99.90
2022-12-29T07:56:49.551Z,99.90
2022-12-29T07:59:17.994Z,99.90
2022-12-29T08:01:45.772Z,99.90
2022-12-29T08:04:13.875Z,99.90
2022-12-29T08:06:41.806Z,99.90
2022-12-29T08:09:15.121Z,99.90
2022-12-29T08:11:48.472Z,99.90
2022-12-29T08:14:17.260Z,99.90
2022-12-29T08:16:45.162Z,99.90
2022-12-29T08:19:14.114Z,99.90
2022-12-29T08:21:42.452Z,99.90
2022-12-29T08:24:10.895Z,99.90
2022-12-29T08:26:38.994Z,99.90
2022-12-29T08:29:07.037Z,99.90
2022-12-29T08:31:34.855Z,99.90
2022-12-29T08:34:04.385Z,99.90
2022-12-29T08:36:32.502Z,99.90
2022-12-29T08:39:01.747Z,99.90
2022-12-29T08:41:30.656Z,99.90
2022-12-29T08:43:59.346Z,99.90
2022-12-29T08:46:27.312Z,99.90
2022-12-29T08:48:56.163Z,99.90
2022-12-29T08:51:25.324Z,99.90
2022-12-29T08:53:54.571Z,99.90
2022-12-29T08:56:25.313Z,99.90
2022-12-29T08:58:57.025Z,99.90
2022-12-29T09:01:29.688Z,99.90
2022-12-29T09:04:18.586Z,99.90
2022-12-29T09:06:46.945Z,99.90
2022-12-29T09:09:15.210Z,99.90
2022-12-29T09:11:44.273Z,99.90
2022-12-29T09:14:15.231Z,99.90
2022-12-29T09:17:04.239Z,99.90
2022-12-29T09:19:32.789Z,99.90
2022-12-29T09:22:01.100Z,99.90
2022-12-29T09:24:29.736Z,99.90
2022-12-29T09:26:57.813Z,99.90
2022-12-29T09:29:28.523Z,99.90
2022-12-29T09:31:56.770Z,99.90
2022-12-29T09:34:27.127Z,99.90
2022-12-29T09:36:55.203Z,99.90
2022-12-29T09:39:24.894Z,99.90
2022-12-29T09:42:10.030Z,99.90
2022-12-29T09:44:57.341Z,99.90
2022-12-29T09:47:27.700Z,99.90
2022-12-29T09:50:08.113Z,99.90
2022-12-29T09:52:44.301Z,99.90
2022-12-29T09:55:20.645Z,99.90
2022-12-29T09:58:02.109Z,99.90
2022-12-29T10:00:39.589Z,99.90
2022-12-29T10:03:20.457Z,99.90
2022-12-29T10:06:07.469Z,99.90
2022-12-29T10:08:45.040Z,99.90
2022-12-29T10:11:44.046Z,99.90
2022-12-29T10:14:44.515Z,99.90
2022-12-29T10:17:54.881Z,99.90
2022-12-29T10:21:01.397Z,99.90
2022-12-29T10:23:36.921Z,99.90
2022-12-29T10:26:10.450Z,99.90
2022-12-29T10:28:56.023Z,99.90
2022-12-29T10:31:26.677Z,99.90
2022-12-29T10:34:02.988Z,99.90
2022-12-29T10:36:44.404Z,99.90
2022-12-29T10:39:27.682Z,99.90
2022-12-29T10:42:14.311Z,99.90
2022-12-29T10:44:43.419Z,99.90
2022-12-29T10:47:17.650Z,99.90
2022-12-29T10:49:48.715Z,99.90
2022-12-29T10:52:21.081Z,99.90
2022-12-29T10:55:06.236Z,99.90
2022-12-29T10:57:45.360Z,99.90
2022-12-29T11:00:23.029Z,99.90
2022-12-29T11:03:27.873Z,99.90
2022-12-29T11:06:08.268Z,99.90
2022-12-29T11:09:03.468Z,99.90
2022-12-29T11:11:36.954Z,99.90
2022-12-29T11:14:19.624Z,99.90
2022-12-29T11:17:02.318Z,99.90
2022-12-29T11:19:36.210Z,99.90
2022-12-29T11:22:29.361Z,99.90
2022-12-29T11:25:11.991Z,99.90
2022-12-29T11:27:40.874Z,99.90
2022-12-29T11:30:27.954Z,99.90
2022-12-29T11:32:57.187Z,99.90
2022-12-29T11:35:38.719Z,99.90
2022-12-29T11:38:22.045Z,99.90
2022-12-29T11:40:50.833Z,99.90
2022-12-29T11:43:34.687Z,99.90
2022-12-29T11:46:06.472Z,99.90
2022-12-29T11:48:41.625Z,99.90
2022-12-29T11:51:10.850Z,99.90
2022-12-29T11:53:44.130Z,99.90
2022-12-29T11:56:18.864Z,99.90
2022-12-29T11:58:50.461Z,99.90
2022-12-29T12:01:35.526Z,99.90
2022-12-29T12:04:33.058Z,99.90
2022-12-29T12:07:22.046Z,99.90
2022-12-29T12:10:04.965Z,99.90
2022-12-29T12:12:53.494Z,99.90
2022-12-29T12:15:48.272Z,99.90
2022-12-29T12:18:49.786Z,99.90
2022-12-29T12:21:43.478Z,99.90
2022-12-29T12:24:34.977Z,99.90
2022-12-29T12:27:25.361Z,99.90
2022-12-29T12:30:19.749Z,99.90
2022-12-29T12:33:10.957Z,99.90
2022-12-29T12:35:41.874Z,99.90
2022-12-29T12:38:29.238Z,99.90
2022-12-29T12:41:15.556Z,99.90
2022-12-29T12:43:57.666Z,99.90
2022-12-29T12:46:53.847Z,99.90
2022-12-29T12:50:03.752Z,99.90
2022-12-29T12:53:07.012Z,99.90
2022-12-29T12:56:00.997Z,99.90
2022-12-29T12:58:47.045Z,99.90
2022-12-29T13:01:15.520Z,99.90
2022-12-29T13:04:14.706Z,99.90
2022-12-29T13:07:17.403Z,99.90
2022-12-29T13:10:08.272Z,99.90
2022-12-29T13:12:52.681Z,99.90
2022-12-29T13:15:40.406Z,99.90
2022-12-29T13:18:27.762Z,99.90
2022-12-29T13:20:58.280Z,99.90
2022-12-29T13:23:43.078Z,99.90
2022-12-29T13:26:37.531Z,99.90
2022-12-29T13:29:15.897Z,99.90
2022-12-29T13:31:50.403Z,99.90
2022-12-29T13:34:21.541Z,99.90
2022-12-29T13:36:55.705Z,99.90
2022-12-29T13:39:33.464Z,99.90
2022-12-29T13:42:04.859Z,99.90
2022-12-29T13:44:38.055Z,99.90
2022-12-29T13:47:21.056Z,99.90
2022-12-29T13:49:51.501Z,99.90
2022-12-29T13:52:33.330Z,99.90
2022-12-29T13:55:01.930Z,99.30
2022-12-29T13:57:59.176Z,99.30
2022-12-29T14:00:34.661Z,98.50
2022-12-29T14:03:33.593Z,96.70
2022-12-29T14:06:17.356Z,96.80
2022-12-29T14:08:47.212Z,97.40
2022-12-29T14:11:18.704Z,96.40
2022-12-29T14:13:48.891Z,96.50
2022-12-29T14:16:27.541Z,96.90
2022-12-29T14:18:58.300Z,97.00
2022-12-29T14:21:31.443Z,97.50
2022-12-29T14:24:29.189Z,98.00
2022-12-29T14:26:57.983Z,97.60
2022-12-29T14:29:26.555Z,96.30
2022-12-29T14:31:54.895Z,96.20
2022-12-29T14:34:23.188Z,95.10
2022-12-29T14:37:00.421Z,94.30
2022-12-29T14:39:40.797Z,94.50
2022-12-29T14:42:11.823Z,94.90
2022-12-29T14:45:09.259Z,95.30
2022-12-29T14:47:43.116Z,96.00
2022-12-29T14:50:24.839Z,96.80
2022-12-29T14:53:04.497Z,97.40
2022-12-29T14:55:41.716Z,98.20
2022-12-29T14:58:32.980Z,97.20
2022-12-29T15:01:03.028Z,97.30
2022-12-29T15:03:46.254Z,97.40
2022-12-29T15:06:23.078Z,97.40
2022-12-29T15:09:05.914Z,97.70
2022-12-29T15:11:48.778Z,97.80
2022-12-29T15:14:29.395Z,97.90
2022-12-29T15:16:58.190Z,98.10
2022-12-29T15:19:29.973Z,97.80
2022-12-29T15:22:02.049Z,97.40
2022-12-29T15:24:31.120Z,96.40
2022-12-29T15:27:05.464Z,96.50
2022-12-29T15:29:44.378Z,96.70
2022-12-29T15:32:26.978Z,96.20
2022-12-29T15:34:57.811Z,96.40
2022-12-29T15:37:28.539Z,96.10
2022-12-29T15:39:57.630Z,96.20
2022-12-29T15:42:46.767Z,96.50
2022-12-29T15:45:15.935Z,96.60
2022-12-29T15:47:47.703Z,96.40
2022-12-29T15:50:34.316Z,96.50
2022-12-29T15:53:04.422Z,96.20
2022-12-29T15:55:37.662Z,96.40
2022-12-29T15:58:19.220Z,96.20
2022-12-29T16:00:57.791Z,96.40
2022-12-29T16:03:28.609Z,96.60
2022-12-29T16:06:08.961Z,96.70
2022-12-29T16:08:40.847Z,96.80
2022-12-29T16:11:24.843Z,96.90
2022-12-29T16:13:55.068Z,96.80
2022-12-29T16:16:36.118Z,97.10
2022-12-29T16:19:22.561Z,97.30
2022-12-29T16:21:51.285Z,97.50
2022-12-29T16:24:23.863Z,97.40
2022-12-29T16:27:21.802Z,97.40
2022-12-29T16:29:55.862Z,97.80
2022-12-29T16:32:32.297Z,98.30
2022-12-29T16:35:19.892Z,98.60
2022-12-29T16:37:48.675Z,98.90
2022-12-29T16:40:20.610Z,99.40
2022-12-29T16:42:52.129Z,99.80
2022-12-29T16:45:20.700Z,99.90
2022-12-29T16:48:07.247Z,99.90
2022-12-29T16:50:38.568Z,99.90
2022-12-29T16:53:19.990Z,99.90
2022-12-29T16:55:49.332Z,99.90
2022-12-29T16:58:23.212Z,99.90
2022-12-29T17:00:56.570Z,99.90
2022-12-29T17:03:35.270Z,99.90
2022-12-29T17:06:03.879Z,99.90
2022-12-29T17:08:41.681Z,99.90
2022-12-29T17:11:38.069Z,99.90
2022-12-29T17:14:06.734Z,99.90
2022-12-29T17:16:35.025Z,99.90
2022-12-29T17:19:03.959Z,99.90
2022-12-29T17:21:31.718Z,99.90
2022-12-29T17:24:02.168Z,99.90
2022-12-29T17:26:30.511Z,99.90
2022-12-29T17:28:59.002Z,99.90
2022-12-29T17:31:27.651Z,99.90
2022-12-29T17:33:56.971Z,99.90
2022-12-29T17:36:26.409Z,99.90
2022-12-29T17:38:54.382Z,99.90
2022-12-29T17:41:22.119Z,99.90
2022-12-29T17:43:50.271Z,99.90
2022-12-29T17:46:18.633Z,99.90
2022-12-29T17:48:53.181Z,99.90
2022-12-29T17:51:23.383Z,99.90
2022-12-29T17:53:53.669Z,99.90
2022-12-29T17:56:21.430Z,99.90
2022-12-29T17:58:50.974Z,99.90
2022-12-29T18:01:21.861Z,99.90
2022-12-29T18:03:51.598Z,99.90
2022-12-29T18:06:19.882Z,99.90
2022-12-29T18:08:48.365Z,99.90
2022-12-29T18:11:25.766Z,99.90
2022-12-29T18:16:17.833Z,99.90
2022-12-29T18:18:46.089Z,99.90
2022-12-29T18:21:17.662Z,99.90
2022-12-29T18:23:46.851Z,99.90
2022-12-29T18:26:25.481Z,99.90
2022-12-29T18:28:57.448Z,99.90
2022-12-29T18:31:33.829Z,99.90
2022-12-29T18:34:07.550Z,99.90
2022-12-29T18:36:35.465Z,99.90
2022-12-29T18:39:03.936Z,99.90
2022-12-29T18:41:33.349Z,99.90
